Pagrindinis puslapis
METAR-TAF:

METAR-TAF

Oro uostai :

Chapecó, Santa Katarina, Brazilija

platuma: 27-08-02S, ilguma: 052-39-43W, Aukštis: 654 m

Dabartinis oras

Ataskaita buvo paskelbta 4 valandos ir 22 minutes, ne 04:00 UTC
Vėjas 5 kt iš Rytų/Pietryčių
Temperatūra 20°C
Drėgmė 68%
Slėgis 1012 hPa
Matomumas 10 km arba daugiau
nėra debesų žemiau 1500 m ir nėra kamuolinių lietaus debesų

METAR: SBCH 240400Z 11005KT CAVOK 20/14 Q1012

Laikas: 05:22 (08:22 UTC)


TAF: trūkstamas

Orai ataskaitas ir orų prognozės (METAR, TAF).

turimą stotys yra geltonos ir raudonos taškus žemėlapyje.

Perkelti pele per norėdami pamatyti stoties vardą.

Tada spustelėkite, norėdami matyti oro stebėjimo ir prognozės.

Norėdami pakeisti žemėlapį: spustelėkite ant žalios mygtukų su juodo kryžiaus žemyn,; žalią mygtuką su brūkšneliu, jei norite nutolinti; arba žalių rodyklių gretimoms žemėlapius.


METAR-TAF: